createdAt,value
2018-01-29T00:02:00.014Z,8.20
2018-01-29T00:04:27.529Z,8.10
2018-01-29T00:06:55.018Z,8.20
2018-01-29T00:09:22.533Z,8.20
2018-01-29T00:11:50.026Z,8.20
2018-01-29T00:14:17.539Z,8.20
2018-01-29T00:16:45.789Z,8.10
2018-01-29T00:19:13.298Z,8.20
2018-01-29T00:21:40.785Z,8.20
2018-01-29T00:24:08.275Z,8.20
2018-01-29T00:26:36.550Z,8.20
2018-01-29T00:29:04.806Z,8.20
2018-01-29T00:31:33.821Z,8.20
2018-01-29T00:34:02.073Z,8.20
2018-01-29T00:36:29.582Z,8.20
2018-01-29T00:38:57.070Z,8.20
2018-01-29T00:41:24.582Z,8.20
2018-01-29T00:43:52.833Z,8.20
2018-01-29T00:46:21.833Z,8.20
2018-01-29T00:48:49.341Z,8.20
2018-01-29T00:51:16.830Z,8.30
2018-01-29T00:53:44.333Z,8.20
2018-01-29T00:56:11.832Z,8.20
2018-01-29T00:58:39.345Z,8.20
2018-01-29T01:01:07.592Z,8.20
2018-01-29T01:03:35.106Z,8.10
2018-01-29T01:06:02.598Z,8.20
2018-01-29T01:08:30.085Z,8.10
2018-01-29T01:10:58.361Z,8.20
2018-01-29T01:13:26.613Z,8.10
2018-01-29T01:15:54.122Z,8.10
2018-01-29T01:18:21.605Z,8.10
2018-01-29T01:20:49.121Z,8.10
2018-01-29T01:23:17.374Z,8.10
2018-01-29T01:25:45.653Z,8.10
2018-01-29T01:28:13.138Z,8.10
2018-01-29T01:30:40.645Z,8.10
2018-01-29T01:33:08.129Z,8.10
2018-01-29T01:35:35.643Z,8.10
2018-01-29T01:38:03.132Z,8.10
2018-01-29T01:40:30.617Z,8.10
2018-01-29T01:42:58.894Z,8.10
2018-01-29T01:45:27.152Z,8.10
2018-01-29T01:47:54.661Z,8.10
2018-01-29T01:50:22.152Z,8.10
2018-01-29T01:52:49.661Z,8.10
2018-01-29T01:55:17.149Z,8.20
2018-01-29T01:57:44.657Z,8.20
2018-01-29T02:00:12.913Z,8.10
2018-01-29T02:02:41.171Z,8.10
2018-01-29T02:05:08.681Z,8.10
2018-01-29T02:07:36.173Z,8.10
2018-01-29T02:10:03.677Z,8.20
2018-01-29T02:12:31.930Z,8.10
2018-01-29T02:14:59.437Z,8.10
2018-01-29T02:17:26.930Z,8.10
2018-01-29T02:19:54.437Z,8.20
2018-01-29T02:22:22.693Z,8.20
2018-01-29T02:24:50.185Z,8.20
2018-01-29T02:27:17.693Z,8.20
2018-01-29T02:29:45.181Z,8.20
2018-01-29T02:32:13.456Z,8.20
2018-01-29T02:34:41.713Z,8.20
2018-01-29T02:37:09.221Z,8.20
2018-01-29T02:39:36.713Z,8.20
2018-01-29T02:42:04.217Z,8.20
2018-01-29T02:44:32.469Z,8.20
2018-01-29T02:46:59.953Z,8.20
2018-01-29T02:49:28.230Z,8.30
2018-01-29T02:51:56.490Z,8.20
2018-01-29T02:54:24.769Z,8.30
2018-01-29T02:56:53.025Z,8.30
2018-01-29T02:59:22.041Z,8.20
2018-01-29T03:01:49.527Z,8.20
2018-01-29T03:04:17.038Z,8.20
2018-01-29T03:06:44.546Z,8.20
2018-01-29T03:09:12.035Z,8.20
2018-01-29T03:11:39.550Z,8.20
2018-01-29T03:14:07.046Z,8.20
2018-01-29T03:16:34.557Z,8.20
2018-01-29T03:19:03.002Z,8.20
2018-01-29T03:21:30.481Z,8.20
2018-01-29T03:23:57.974Z,8.20
2018-01-29T03:26:25.499Z,8.20
2018-01-29T03:28:53.758Z,8.20
2018-01-29T03:31:22.779Z,8.20
2018-01-29T03:33:51.034Z,8.30
2018-01-29T03:36:18.522Z,8.20
2018-01-29T03:38:46.806Z,8.30
2018-01-29T03:41:14.298Z,8.30
2018-01-29T03:43:41.814Z,8.30
2018-01-29T03:46:10.075Z,8.30
2018-01-29T03:48:38.360Z,8.30
2018-01-29T03:51:06.622Z,8.30
2018-01-29T03:53:34.142Z,8.30
2018-01-29T03:56:01.642Z,8.30
2018-01-29T03:58:29.898Z,8.30
2018-01-29T04:00:57.414Z,8.30
2018-01-29T04:03:24.910Z,8.20
2018-01-29T04:05:52.427Z,8.30
2018-01-29T04:08:19.927Z,8.30
2018-01-29T04:10:47.450Z,8.30
2018-01-29T04:13:14.946Z,8.30
2018-01-29T04:15:42.467Z,8.30
2018-01-29T04:18:09.962Z,8.40
2018-01-29T04:20:37.455Z,8.40
2018-01-29T04:23:05.738Z,8.40
2018-01-29T04:25:33.994Z,8.40
2018-01-29T04:28:01.515Z,8.40
2018-01-29T04:30:29.011Z,8.40
2018-01-29T04:32:57.298Z,8.40
2018-01-29T04:35:25.563Z,8.40
2018-01-29T04:37:53.083Z,8.40
2018-01-29T04:40:20.574Z,8.40
2018-01-29T04:42:48.062Z,8.40
2018-01-29T04:45:15.586Z,8.40
2018-01-29T04:47:43.079Z,8.40
2018-01-29T04:50:10.597Z,8.40
2018-01-29T04:52:38.086Z,8.40
2018-01-29T04:55:06.370Z,8.40
2018-01-29T04:57:33.867Z,8.40
2018-01-29T05:00:01.387Z,8.40
2018-01-29T05:02:28.877Z,8.40
2018-01-29T05:04:56.394Z,8.40
2018-01-29T05:07:24.659Z,8.40
2018-01-29T05:09:52.946Z,8.40
2018-01-29T05:12:21.202Z,8.40
2018-01-29T05:14:48.703Z,8.40
2018-01-29T05:17:16.238Z,8.50
2018-01-29T05:19:44.498Z,8.50
2018-01-29T05:22:12.010Z,8.40
2018-01-29T05:24:39.559Z,8.40
2018-01-29T05:27:07.818Z,8.40
2018-01-29T05:29:35.315Z,8.40
2018-01-29T05:32:02.838Z,8.40
2018-01-29T05:34:30.326Z,8.50
2018-01-29T05:37:09.576Z,8.40
2018-01-29T05:39:37.071Z,8.40
2018-01-29T05:42:05.332Z,8.40
2018-01-29T05:44:32.851Z,8.40
2018-01-29T05:47:00.342Z,8.40
2018-01-29T05:49:27.865Z,8.40
2018-01-29T05:51:55.354Z,8.40
2018-01-29T05:54:22.866Z,8.40
2018-01-29T05:56:50.363Z,8.40
2018-01-29T05:59:17.873Z,8.40
2018-01-29T06:01:45.366Z,8.40
2018-01-29T06:04:12.890Z,8.30
2018-01-29T06:06:40.382Z,8.30
2018-01-29T06:09:07.870Z,8.30
2018-01-29T06:11:35.383Z,8.30
2018-01-29T06:14:02.878Z,8.20
2018-01-29T06:16:30.430Z,8.20
2018-01-29T06:18:57.927Z,8.20
2018-01-29T06:21:26.210Z,8.20
2018-01-29T06:23:54.487Z,8.20
2018-01-29T06:26:22.775Z,8.30
2018-01-29T06:28:50.276Z,8.30
2018-01-29T06:31:17.807Z,8.30
2018-01-29T06:33:45.362Z,8.30
2018-01-29T06:36:12.858Z,8.40
2018-01-29T06:38:40.375Z,8.30
2018-01-29T06:41:07.870Z,8.30
2018-01-29T06:43:35.391Z,8.30
2018-01-29T06:46:02.887Z,8.40
2018-01-29T06:48:30.402Z,8.40
2018-01-29T06:50:57.928Z,8.40
2018-01-29T06:53:25.442Z,8.40
2018-01-29T06:55:52.934Z,8.40
2018-01-29T06:58:20.426Z,8.40
2018-01-29T07:00:48.706Z,8.40
2018-01-29T07:03:16.198Z,8.40
2018-01-29T07:05:43.709Z,8.40
2018-01-29T07:08:11.970Z,8.40
2018-01-29T07:10:39.490Z,8.40
2018-01-29T07:13:06.989Z,8.40
2018-01-29T07:15:34.507Z,8.40
2018-01-29T07:18:01.999Z,8.40
2018-01-29T07:20:29.514Z,8.40
2018-01-29T07:22:57.007Z,8.30
2018-01-29T07:25:24.503Z,8.30
2018-01-29T07:27:52.787Z,8.30
2018-01-29T07:30:20.277Z,8.20
2018-01-29T07:32:47.798Z,8.20
2018-01-29T07:35:16.059Z,8.20
2018-01-29T07:37:44.346Z,8.20
2018-01-29T07:40:12.606Z,8.20
2018-01-29T07:42:40.134Z,8.20
2018-01-29T07:45:07.630Z,8.30
2018-01-29T07:47:35.915Z,8.30
2018-01-29T07:50:04.178Z,8.30
2018-01-29T07:52:32.438Z,8.30
2018-01-29T07:54:59.959Z,8.30
2018-01-29T07:57:27.454Z,8.30
2018-01-29T07:59:54.971Z,8.40
2018-01-29T08:02:22.471Z,8.40
2018-01-29T08:04:49.990Z,8.40
2018-01-29T08:07:17.490Z,8.50
2018-01-29T08:09:45.010Z,8.50
2018-01-29T08:12:12.507Z,8.50
2018-01-29T08:14:41.511Z,8.50
2018-01-29T08:17:09.027Z,8.50
2018-01-29T08:19:36.527Z,8.50
2018-01-29T08:22:05.552Z,8.50
2018-01-29T08:24:33.047Z,8.50
2018-01-29T08:27:00.587Z,8.50
2018-01-29T08:29:28.083Z,8.60
2018-01-29T08:31:55.606Z,8.60
2018-01-29T08:34:23.102Z,8.60
2018-01-29T08:36:50.595Z,8.60
2018-01-29T08:39:18.879Z,8.60
2018-01-29T08:41:46.375Z,8.60
2018-01-29T08:44:14.843Z,8.70
2018-01-29T08:46:42.339Z,8.60
2018-01-29T08:49:09.858Z,8.70
2018-01-29T08:51:37.355Z,8.70
2018-01-29T08:54:04.872Z,8.70
2018-01-29T08:56:32.367Z,8.80
2018-01-29T08:58:59.866Z,8.80
2018-01-29T09:01:27.390Z,8.70
2018-01-29T09:03:54.882Z,8.80
2018-01-29T09:06:22.398Z,8.80
2018-01-29T09:08:49.894Z,8.80
2018-01-29T09:11:18.179Z,8.80
2018-01-29T09:13:45.675Z,8.80
2018-01-29T09:16:13.195Z,8.80
2018-01-29T09:18:40.690Z,8.80
2018-01-29T09:21:08.187Z,8.80
2018-01-29T09:23:36.471Z,8.90
2018-01-29T09:26:04.734Z,9.00
2018-01-29T09:28:32.254Z,9.00
2018-01-29T09:30:59.746Z,9.00
2018-01-29T09:33:27.267Z,9.00
2018-01-29T09:35:54.766Z,9.00
2018-01-29T09:38:22.290Z,9.00
2018-01-29T09:40:49.794Z,8.90
2018-01-29T09:43:18.055Z,8.90
2018-01-29T09:45:46.345Z,8.90
2018-01-29T09:48:14.607Z,8.90
2018-01-29T09:50:42.130Z,8.90
2018-01-29T09:53:09.639Z,9.00
2018-01-29T09:55:37.922Z,9.00
2018-01-29T09:58:06.186Z,9.00
2018-01-29T10:00:33.707Z,9.00
2018-01-29T10:03:01.206Z,9.00
2018-01-29T10:05:29.492Z,9.00
2018-01-29T10:07:57.754Z,9.00
2018-01-29T10:10:26.015Z,9.00
2018-01-29T10:12:53.530Z,9.00
2018-01-29T10:15:21.034Z,9.00
2018-01-29T10:17:48.607Z,9.00
2018-01-29T10:20:16.107Z,9.10
2018-01-29T10:22:43.625Z,9.10
2018-01-29T10:25:11.888Z,9.10
2018-01-29T10:27:39.383Z,9.10
2018-01-29T10:30:06.907Z,9.10
2018-01-29T10:32:34.405Z,9.10
2018-01-29T10:35:01.918Z,9.10
2018-01-29T10:37:29.419Z,9.10
2018-01-29T10:39:56.935Z,9.10
2018-01-29T10:42:24.421Z,9.20
2018-01-29T10:44:52.674Z,9.10
2018-01-29T10:47:20.187Z,9.10
2018-01-29T10:49:47.687Z,9.10
2018-01-29T10:52:15.199Z,9.10
2018-01-29T10:54:42.696Z,9.20
2018-01-29T10:57:10.216Z,9.10
2018-01-29T10:59:37.735Z,9.20
2018-01-29T11:02:05.246Z,9.20
2018-01-29T11:04:32.742Z,9.20
2018-01-29T11:07:00.263Z,9.30
2018-01-29T11:09:27.754Z,9.30
2018-01-29T11:11:55.342Z,9.30
2018-01-29T11:14:23.635Z,9.30
2018-01-29T11:16:51.138Z,9.30
2018-01-29T11:19:18.650Z,9.30
2018-01-29T11:21:46.150Z,9.30
2018-01-29T11:24:13.665Z,9.30
2018-01-29T11:26:41.161Z,9.30
2018-01-29T11:29:08.673Z,9.40
2018-01-29T11:31:36.930Z,9.30
2018-01-29T11:34:04.418Z,9.30
2018-01-29T11:36:31.930Z,9.30
2018-01-29T11:38:59.417Z,9.40
2018-01-29T11:41:27.701Z,9.30
2018-01-29T11:43:55.953Z,9.40
2018-01-29T11:46:23.475Z,9.40
2018-01-29T11:48:50.969Z,9.40
2018-01-29T11:51:18.468Z,9.30
2018-01-29T11:53:45.982Z,9.40
2018-01-29T11:56:13.478Z,9.40
2018-01-29T11:58:40.994Z,9.40
2018-01-29T12:01:08.490Z,9.40
2018-01-29T12:03:36.006Z,9.40
2018-01-29T12:06:03.502Z,9.40
2018-01-29T12:08:31.778Z,9.50
2018-01-29T12:11:00.039Z,9.50
2018-01-29T12:13:28.298Z,9.50
2018-01-29T12:15:55.819Z,9.50
2018-01-29T12:18:24.106Z,9.50
2018-01-29T12:20:51.618Z,9.50
2018-01-29T12:23:19.880Z,9.60
2018-01-29T12:25:48.166Z,9.60
2018-01-29T12:28:16.430Z,9.60
2018-01-29T12:30:50.918Z,9.60
2018-01-29T12:33:18.452Z,9.60
2018-01-29T12:35:46.709Z,9.60
2018-01-29T12:38:14.274Z,9.50
2018-01-29T12:40:41.767Z,9.50
2018-01-29T12:43:10.751Z,9.50
2018-01-29T12:45:38.247Z,9.60
2018-01-29T12:48:05.766Z,9.60
2018-01-29T12:50:33.262Z,9.60
2018-01-29T12:53:00.778Z,9.60
2018-01-29T12:55:28.274Z,9.60
2018-01-29T12:57:55.795Z,9.60
2018-01-29T13:00:23.290Z,9.60
2018-01-29T13:02:50.778Z,9.60
2018-01-29T13:05:19.054Z,9.60
2018-01-29T13:07:47.319Z,9.60
2018-01-29T13:10:15.602Z,9.50
2018-01-29T13:12:43.859Z,9.60
2018-01-29T13:15:11.379Z,9.50
2018-01-29T13:17:38.875Z,9.50
2018-01-29T13:20:06.395Z,9.50
2018-01-29T13:22:33.886Z,9.50
2018-01-29T13:25:01.387Z,9.50
2018-01-29T13:27:28.907Z,9.60
2018-01-29T13:29:56.398Z,9.60
2018-01-29T13:32:24.674Z,9.50
2018-01-29T13:34:52.934Z,9.60
2018-01-29T13:37:21.214Z,9.60
2018-01-29T13:39:49.473Z,9.60
2018-01-29T13:42:16.991Z,9.50
2018-01-29T13:44:44.487Z,9.60
2018-01-29T13:47:12.007Z,9.60
2018-01-29T13:49:39.504Z,9.60
2018-01-29T13:52:07.788Z,9.70
2018-01-29T13:54:35.306Z,9.60
2018-01-29T13:57:02.798Z,9.60
2018-01-29T13:59:31.086Z,9.60
2018-01-29T14:01:58.583Z,9.60
2018-01-29T14:04:26.098Z,9.60
2018-01-29T14:06:55.102Z,9.60
2018-01-29T14:09:23.386Z,9.60
2018-01-29T14:11:51.642Z,9.60
2018-01-29T14:14:19.158Z,9.60
2018-01-29T14:16:46.655Z,9.60
2018-01-29T14:19:14.154Z,9.60
2018-01-29T14:21:41.669Z,9.50
2018-01-29T14:24:09.162Z,9.50
2018-01-29T14:26:37.442Z,9.50
2018-01-29T14:29:04.932Z,9.50
2018-01-29T14:31:32.450Z,9.50
2018-01-29T14:34:00.710Z,9.50
2018-01-29T14:36:28.227Z,9.50
2018-01-29T14:38:55.722Z,9.50
2018-01-29T14:41:23.210Z,9.50
2018-01-29T14:43:50.735Z,9.50
2018-01-29T14:46:18.229Z,9.50
2018-01-29T14:48:45.742Z,9.50
2018-01-29T14:51:13.238Z,9.50
2018-01-29T14:53:40.758Z,9.50
2018-01-29T14:56:08.255Z,9.50
2018-01-29T14:58:36.510Z,9.50
2018-01-29T15:01:04.022Z,9.50
2018-01-29T15:03:31.514Z,9.50
2018-01-29T15:05:59.027Z,9.60
2018-01-29T15:08:26.522Z,9.60
2018-01-29T15:10:54.201Z,9.50
2018-01-29T15:13:21.716Z,9.50
2018-01-29T15:15:49.223Z,9.50
2018-01-29T15:18:17.515Z,9.50
2018-01-29T15:20:46.702Z,9.50
2018-01-29T15:23:14.987Z,9.50
2018-01-29T15:25:43.251Z,9.50
2018-01-29T15:28:12.130Z,9.50
2018-01-29T15:30:39.622Z,9.60
2018-01-29T15:33:07.138Z,9.50
2018-01-29T15:35:34.632Z,9.50
2018-01-29T15:38:02.911Z,9.60
2018-01-29T15:40:31.166Z,9.60
2018-01-29T15:42:58.664Z,9.50
2018-01-29T15:45:26.182Z,9.50
2018-01-29T15:47:53.674Z,9.50
2018-01-29T15:50:21.202Z,9.50
2018-01-29T15:52:49.466Z,9.50
2018-01-29T15:55:19.410Z,9.50
2018-01-29T15:57:47.671Z,9.50
2018-01-29T16:00:15.954Z,9.50
2018-01-29T16:02:44.218Z,9.50
2018-01-29T16:05:11.735Z,9.50
2018-01-29T16:07:39.230Z,9.50
2018-01-29T16:10:06.722Z,9.50
2018-01-29T16:12:34.235Z,9.50
2018-01-29T16:15:01.731Z,9.50
2018-01-29T16:17:31.902Z,9.50
2018-01-29T16:20:01.007Z,9.50
2018-01-29T16:22:29.455Z,9.50
2018-01-29T16:24:56.951Z,9.50
2018-01-29T16:27:24.446Z,9.50
2018-01-29T16:29:52.727Z,9.50
2018-01-29T16:32:20.227Z,9.50
2018-01-29T16:34:47.746Z,9.50
2018-01-29T16:37:15.233Z,9.50
2018-01-29T16:39:42.751Z,9.50
2018-01-29T16:42:11.015Z,9.50
2018-01-29T16:44:39.298Z,9.50
2018-01-29T16:47:07.554Z,9.50
2018-01-29T16:49:35.054Z,9.50
2018-01-29T16:52:02.570Z,9.50
2018-01-29T16:54:39.991Z,9.50
2018-01-29T16:57:08.275Z,9.50
2018-01-29T16:59:37.261Z,9.50
2018-01-29T17:02:15.498Z,9.50
2018-01-29T17:04:42.990Z,9.50
2018-01-29T17:07:10.506Z,9.50
2018-01-29T17:09:38.002Z,9.50
2018-01-29T17:12:05.519Z,9.50
2018-01-29T17:14:33.015Z,9.50
2018-01-29T17:17:00.523Z,9.50
2018-01-29T17:19:28.042Z,9.50
2018-01-29T17:21:55.537Z,9.50
2018-01-29T17:24:23.815Z,9.50
2018-01-29T17:26:52.078Z,9.60
2018-01-29T17:29:20.362Z,9.60
2018-01-29T17:31:48.622Z,9.60
2018-01-29T17:34:16.914Z,9.60
2018-01-29T17:36:45.176Z,9.60
2018-01-29T17:39:13.461Z,9.60
2018-01-29T17:41:41.714Z,9.60
2018-01-29T17:44:09.207Z,9.60
2018-01-29T17:46:36.727Z,9.60
2018-01-29T17:49:04.222Z,9.60
2018-01-29T17:51:32.507Z,9.60
2018-01-29T17:53:59.994Z,9.60
2018-01-29T17:56:27.515Z,9.60
2018-01-29T17:58:55.011Z,9.60
2018-01-29T18:01:22.531Z,9.60
2018-01-29T18:03:50.791Z,9.60
2018-01-29T18:06:19.074Z,9.60
2018-01-29T18:08:52.011Z,9.60
2018-01-29T18:11:19.534Z,9.60
2018-01-29T18:13:47.031Z,9.60
2018-01-29T18:16:14.527Z,9.60
2018-01-29T18:18:45.614Z,9.60
2018-01-29T18:21:13.110Z,9.60
2018-01-29T18:23:40.626Z,9.60
2018-01-29T18:26:08.121Z,9.60
2018-01-29T18:28:35.642Z,9.70
2018-01-29T18:31:03.134Z,9.70
2018-01-29T18:33:30.745Z,9.70
2018-01-29T18:35:58.262Z,9.70
2018-01-29T18:38:25.758Z,9.70
2018-01-29T18:40:54.099Z,9.70
2018-01-29T18:43:26.359Z,9.80
2018-01-29T18:45:53.878Z,9.80
2018-01-29T18:48:21.375Z,9.80
2018-01-29T18:50:48.866Z,9.80
2018-01-29T18:53:17.154Z,9.90
2018-01-29T18:55:45.410Z,9.90
2018-01-29T18:58:12.922Z,9.80
2018-01-29T19:00:40.418Z,9.80
2018-01-29T19:03:08.080Z,9.80
2018-01-29T19:05:35.575Z,9.90
2018-01-29T19:08:03.094Z,9.90
2018-01-29T19:10:32.094Z,9.90
2018-01-29T19:12:59.591Z,9.80
2018-01-29T19:15:27.102Z,9.80
2018-01-29T19:17:54.589Z,9.80
2018-01-29T19:20:22.866Z,9.80
2018-01-29T19:22:51.164Z,9.80
2018-01-29T19:25:18.679Z,9.80
2018-01-29T19:27:53.211Z,9.80
2018-01-29T19:30:20.750Z,9.90
2018-01-29T19:32:48.962Z,9.80
2018-01-29T19:35:28.071Z,9.80
2018-01-29T19:37:55.567Z,9.80
2018-01-29T19:40:23.079Z,9.80
2018-01-29T19:42:50.575Z,9.80
2018-01-29T19:45:19.378Z,9.80
2018-01-29T19:47:46.899Z,9.80
2018-01-29T19:50:15.171Z,9.70
2018-01-29T19:52:43.466Z,9.70
2018-01-29T19:55:11.730Z,9.70
2018-01-29T19:57:40.014Z,9.70
2018-01-29T20:00:08.271Z,9.70
2018-01-29T20:02:35.766Z,9.60
2018-01-29T20:05:03.338Z,9.60
2018-01-29T20:07:30.836Z,9.60
2018-01-29T20:09:58.351Z,9.60
2018-01-29T20:12:25.846Z,9.60
2018-01-29T20:14:53.358Z,9.60
2018-01-29T20:17:20.858Z,9.50
2018-01-29T20:19:48.354Z,9.50
2018-01-29T20:22:16.639Z,9.40
2018-01-29T20:24:44.931Z,9.40
2018-01-29T20:27:12.452Z,9.40
2018-01-29T20:29:39.948Z,9.40
2018-01-29T20:32:07.467Z,9.40
2018-01-29T20:34:34.963Z,9.40
2018-01-29T20:37:02.518Z,9.40
2018-01-29T20:39:30.010Z,9.50
2018-01-29T20:41:57.503Z,9.50
2018-01-29T20:44:25.016Z,9.50
2018-01-29T20:46:52.526Z,9.50
2018-01-29T20:49:20.814Z,9.40
2018-01-29T20:51:49.075Z,9.50
2018-01-29T20:54:16.590Z,9.50
2018-01-29T20:56:44.082Z,9.50
2018-01-29T20:59:12.382Z,9.50
2018-01-29T21:01:40.642Z,9.40
2018-01-29T21:04:08.902Z,9.40
2018-01-29T21:06:36.423Z,9.40
2018-01-29T21:09:06.742Z,9.40
2018-01-29T21:11:34.263Z,9.40
2018-01-29T21:14:02.526Z,9.40
2018-01-29T21:16:30.038Z,9.40
2018-01-29T21:18:57.526Z,9.40
2018-01-29T21:21:25.051Z,9.40
2018-01-29T21:23:52.546Z,9.40
2018-01-29T21:26:20.060Z,9.40
2018-01-29T21:28:47.559Z,9.40
2018-01-29T21:31:15.054Z,9.30
2018-01-29T21:33:43.338Z,9.30
2018-01-29T21:36:11.598Z,9.30
2018-01-29T21:38:42.682Z,9.20
2018-01-29T21:41:10.184Z,9.20
2018-01-29T21:43:37.703Z,9.20
2018-01-29T21:46:05.199Z,9.10
2018-01-29T21:48:32.770Z,9.10
2018-01-29T21:51:00.266Z,9.10
2018-01-29T21:53:27.762Z,9.10
2018-01-29T21:55:55.278Z,9.10
2018-01-29T21:58:22.774Z,9.10
2018-01-29T22:00:50.285Z,9.10
2018-01-29T22:03:17.782Z,9.10
2018-01-29T22:05:45.298Z,9.10
2018-01-29T22:08:13.562Z,9.10
2018-01-29T22:10:41.851Z,9.10
2018-01-29T22:13:10.115Z,9.10
2018-01-29T22:15:38.397Z,9.10
2018-01-29T22:18:06.654Z,9.10
2018-01-29T22:20:34.147Z,9.10
2018-01-29T22:23:01.657Z,9.10
2018-01-29T22:25:29.150Z,9.10
2018-01-29T22:27:57.438Z,9.10
2018-01-29T22:30:24.930Z,9.10
2018-01-29T22:32:52.422Z,9.10
2018-01-29T22:35:19.938Z,9.10
2018-01-29T22:37:47.440Z,9.10
2018-01-29T22:40:14.953Z,9.10
2018-01-29T22:42:42.450Z,9.10
2018-01-29T22:45:09.962Z,9.10
2018-01-29T22:47:37.486Z,9.20
2018-01-29T22:50:05.766Z,9.20
2018-01-29T22:52:34.023Z,9.10
2018-01-29T22:55:01.538Z,9.10
2018-01-29T22:57:29.032Z,9.10
2018-01-29T22:59:56.550Z,9.00
2018-01-29T23:02:24.039Z,9.00
2018-01-29T23:04:51.530Z,9.00
2018-01-29T23:07:19.806Z,9.00
2018-01-29T23:09:48.071Z,9.00
2018-01-29T23:12:15.591Z,9.00
2018-01-29T23:14:43.078Z,9.00
2018-01-29T23:17:10.596Z,9.00
2018-01-29T23:19:38.090Z,9.00
2018-01-29T23:22:05.607Z,9.00
2018-01-29T23:24:33.103Z,9.00
2018-01-29T23:27:00.598Z,9.00
2018-01-29T23:29:28.883Z,9.00
2018-01-29T23:31:57.143Z,9.00
2018-01-29T23:34:25.425Z,9.00
2018-01-29T23:36:53.686Z,9.00
2018-01-29T23:39:21.202Z,9.00
2018-01-29T23:41:48.698Z,9.00
2018-01-29T23:44:16.214Z,9.00
2018-01-29T23:46:43.702Z,8.90
2018-01-29T23:49:11.197Z,8.90
2018-01-29T23:51:39.486Z,8.80
2018-01-29T23:54:06.982Z,8.80
2018-01-29T23:56:35.266Z,8.80
2018-01-29T23:59:02.763Z,8.80
